Time;durP1;ratioP1;P1;durP2;ratioP2;P2;SDS_P1;SDS_P2;PMS_P1;PMS_P2;Temp;Humidity;BMP_temperature;BMP_pressure;BME280_temperature;BME280_humidity;BME280_pressure;Samples;Min_cycle;Max_cycle;Signal;HPM_P1;HPM_P2
2022/01/08 00:02:09;;;;;;;4.75;1.58;;;2.40;99.90;;;;;;4992408;28;20681;-68
2022/01/08 00:04:35;;;;;;;6.80;1.55;;;2.30;99.90;;;;;;4994520;28;20042;-69
2022/01/08 00:07:01;;;;;;;2.33;1.38;;;2.40;99.90;;;;;;4980026;28;20042;-69
2022/01/08 00:09:27;;;;;;;8.55;2.22;;;2.40;99.90;;;;;;4996162;28;20125;-68
2022/01/08 00:11:53;;;;;;;2.72;1.40;;;2.40;99.90;;;;;;4995863;28;20553;-69
2022/01/08 00:14:21;;;;;;;4.47;1.75;;;2.40;99.90;;;;;;4979772;28;20115;-69
2022/01/08 00:16:47;;;;;;;3.10;1.83;;;2.40;99.90;;;;;;4995738;28;20057;-68
2022/01/08 00:19:13;;;;;;;4.88;1.92;;;2.40;99.90;;;;;;4979699;28;20034;-69
2022/01/08 00:21:39;;;;;;;4.47;2.15;;;2.40;99.90;;;;;;4995550;28;20398;-69
2022/01/08 00:24:05;;;;;;;5.63;2.40;;;2.30;99.90;;;;;;4995847;28;20057;-69
2022/01/08 00:26:31;;;;;;;5.45;2.60;;;2.30;99.90;;;;;;4993345;28;20042;-69
2022/01/08 00:28:57;;;;;;;5.57;2.78;;;2.20;99.90;;;;;;4995708;28;20124;-69
2022/01/08 00:31:22;;;;;;;6.13;1.90;;;2.20;99.90;;;;;;4995617;28;20046;-68
2022/01/08 00:33:48;;;;;;;7.72;2.70;;;2.10;99.90;;;;;;4995551;28;20065;-68
2022/01/08 00:36:14;;;;;;;9.38;3.53;;;2.10;99.90;;;;;;4995628;28;20034;-69
2022/01/08 00:38:40;;;;;;;11.73;3.38;;;2.10;99.90;;;;;;5028618;28;20402;-69
2022/01/08 00:41:06;;;;;;;5.97;3.33;;;2.20;99.90;;;;;;5011625;28;20049;-69
2022/01/08 00:43:32;;;;;;;7.82;3.75;;;2.20;99.90;;;;;;5028215;28;20042;-69
2022/01/08 00:45:58;;;;;;;6.72;3.38;;;2.20;99.90;;;;;;4995341;28;20038;-69
2022/01/08 00:48:24;;;;;;;11.35;4.82;;;2.20;99.90;;;;;;4995291;28;20589;-69
2022/01/08 00:50:52;;;;;;;8.23;4.15;;;2.30;99.90;;;;;;5011533;28;20042;-69
2022/01/08 00:53:19;;;;;;;7.45;3.95;;;2.30;99.90;;;;;;5028033;28;20094;-69
2022/01/08 00:55:44;;;;;;;11.77;4.40;;;2.30;99.90;;;;;;4993348;28;20088;-69
2022/01/08 00:58:10;;;;;;;12.23;4.75;;;2.30;99.90;;;;;;4995009;28;20099;-69
2022/01/08 01:00:36;;;;;;;8.63;4.38;;;2.20;99.90;;;;;;4995154;28;20045;-69
2022/01/08 01:03:02;;;;;;;16.13;5.28;;;2.10;99.90;;;;;;5027786;28;20093;-69
2022/01/08 01:05:29;;;;;;;13.55;5.88;;;2.10;99.90;;;;;;4994993;28;20510;-69
2022/01/08 01:07:55;;;;;;;10.70;4.97;;;2.00;99.90;;;;;;4994990;28;20094;-69
2022/01/08 01:10:20;;;;;;;13.00;4.88;;;2.00;99.90;;;;;;5011593;28;20128;-69
2022/01/08 01:12:46;;;;;;;10.55;5.45;;;1.90;99.90;;;;;;4994780;28;20412;-69
2022/01/08 01:15:15;;;;;;;10.50;5.38;;;1.90;99.90;;;;;;5027863;28;20050;-69
2022/01/08 01:17:44;;;;;;;11.18;5.90;;;1.90;99.90;;;;;;5011195;28;20049;-69
2022/01/08 01:20:12;;;;;;;10.23;5.40;;;1.80;99.90;;;;;;4994914;28;20402;-69
2022/01/08 01:23:42;;;;;;;12.65;5.70;;;1.80;99.90;;;;;;5009215;28;20051;-69
2022/01/08 01:25:38;;;;;;;8.75;4.97;;;1.80;99.90;;;;;;4957174;28;20480;-69
2022/01/08 01:41:49;;;;;;;15.68;5.55;;;2.00;99.90;;;;;;4971934;28;20053;-69
2022/01/08 01:47:02;;;;;;;10.65;4.78;;;2.20;99.90;;;;;;4971768;28;20108;-69
2022/01/08 01:49:33;;;;;;;11.07;4.28;;;2.30;99.90;;;;;;4971988;28;20051;-68
2022/01/08 01:52:01;;;;;;;10.32;4.25;;;2.30;99.90;;;;;;4971883;28;20069;-69
2022/01/08 01:54:28;;;;;;;5.47;2.80;;;2.40;99.90;;;;;;4971611;28;20042;-69
2022/01/08 01:56:57;;;;;;;10.13;3.63;;;2.50;99.90;;;;;;4953757;28;20515;-68
2022/01/08 01:59:24;;;;;;;6.97;2.35;;;2.50;99.90;;;;;;4971802;28;20046;-69
2022/01/08 02:01:50;;;;;;;9.25;2.45;;;2.60;99.90;;;;;;4971510;28;20049;-69
2022/01/08 02:04:15;;;;;;;6.82;1.77;;;2.60;99.90;;;;;;4955414;28;20039;-69
2022/01/08 02:06:41;;;;;;;3.75;1.60;;;2.60;99.90;;;;;;4971760;28;20042;-69
2022/01/08 02:09:07;;;;;;;8.77;2.03;;;2.50;99.90;;;;;;4955293;28;20487;-69
2022/01/08 02:11:33;;;;;;;5.40;1.60;;;2.50;99.90;;;;;;4971578;28;20047;-69
2022/01/08 02:14:05;;;;;;;4.30;1.35;;;2.50;99.90;;;;;;4971566;28;20042;-69
2022/01/08 02:16:31;;;;;;;5.00;1.50;;;2.40;99.90;;;;;;4971493;28;20144;-69
2022/01/08 02:18:57;;;;;;;7.22;2.67;;;2.30;99.90;;;;;;4955088;28;20086;-69
2022/01/08 02:21:23;;;;;;;4.25;1.25;;;2.20;99.90;;;;;;4971147;28;20054;-69
2022/01/08 02:23:49;;;;;;;7.57;1.50;;;2.10;99.90;;;;;;4971199;28;20046;-69
2022/01/08 02:26:15;;;;;;;3.35;1.30;;;2.00;99.90;;;;;;4968692;28;20126;-69
2022/01/08 02:28:41;;;;;;;3.72;1.00;;;2.00;99.90;;;;;;4955208;28;20574;-69
2022/01/08 02:31:18;;;;;;;2.50;1.20;;;1.90;99.90;;;;;;4971141;28;20052;-69
2022/01/08 02:33:44;;;;;;;6.32;1.30;;;1.90;99.90;;;;;;4970973;28;20126;-69
2022/01/08 02:36:10;;;;;;;2.85;1.13;;;1.80;99.90;;;;;;4955193;28;20134;-69
2022/01/08 02:38:36;;;;;;;4.95;1.80;;;1.80;99.90;;;;;;4955307;28;20042;-69
2022/01/08 02:41:04;;;;;;;4.55;1.40;;;1.80;99.90;;;;;;4970942;28;20490;-69
2022/01/08 02:43:33;;;;;;;4.78;1.88;;;1.80;99.90;;;;;;4970889;28;20054;-69
2022/01/08 02:45:59;;;;;;;8.68;3.58;;;1.80;99.90;;;;;;4987077;28;20035;-69
2022/01/08 02:48:25;;;;;;;7.60;3.78;;;1.70;99.90;;;;;;4954615;28;20073;-69
2022/01/08 02:50:50;;;;;;;12.13;4.65;;;1.70;99.90;;;;;;4971078;28;20045;-69
2022/01/08 02:53:16;;;;;;;5.50;2.20;;;1.70;99.90;;;;;;4970584;28;20483;-69
2022/01/08 02:55:42;;;;;;;6.95;2.13;;;1.70;99.90;;;;;;4968752;28;20058;-69
2022/01/08 02:58:08;;;;;;;4.35;1.77;;;1.80;99.90;;;;;;4970754;28;20050;-69
2022/01/08 03:00:34;;;;;;;6.38;1.80;;;1.80;99.90;;;;;;4954614;28;20047;-69
2022/01/08 03:02:59;;;;;;;7.35;1.80;;;1.80;99.90;;;;;;4970891;28;20092;-69
2022/01/08 03:05:25;;;;;;;5.50;2.30;;;1.90;99.90;;;;;;4970708;28;20375;-69
2022/01/08 03:07:51;;;;;;;7.05;2.72;;;1.90;99.90;;;;;;4970634;28;20042;-69
2022/01/08 03:10:18;;;;;;;6.22;2.20;;;1.90;99.90;;;;;;4970645;28;20038;-69
2022/01/08 03:12:45;;;;;;;6.30;2.28;;;1.90;99.90;;;;;;4970393;28;20184;-69
2022/01/08 03:15:20;;;;;;;8.02;2.13;;;1.90;99.90;;;;;;4970587;28;20132;-69
2022/01/08 03:17:46;;;;;;;10.15;1.95;;;2.00;99.90;;;;;;5002766;28;20503;-69
2022/01/08 03:20:14;;;;;;;9.02;1.73;;;2.00;99.90;;;;;;4970426;28;20047;-69
2022/01/08 03:22:45;;;;;;;7.63;1.90;;;2.00;99.90;;;;;;4954198;28;20058;-69
2022/01/08 03:25:12;;;;;;;4.45;1.70;;;2.00;99.90;;;;;;5000705;28;20105;-69
2022/01/08 03:27:41;;;;;;;4.55;1.85;;;2.00;99.90;;;;;;4970378;28;20068;-69
2022/01/08 03:30:08;;;;;;;4.72;1.90;;;2.00;99.90;;;;;;4970458;28;20062;-69
2022/01/08 03:32:34;;;;;;;11.27;2.83;;;2.00;99.90;;;;;;4970346;28;20058;-69
2022/01/08 03:35:00;;;;;;;6.30;2.10;;;2.00;99.90;;;;;;4970108;28;20047;-69
2022/01/08 03:37:26;;;;;;;7.93;2.00;;;2.00;99.90;;;;;;4970122;28;20043;-69
2022/01/08 03:39:52;;;;;;;4.68;2.42;;;2.00;99.90;;;;;;4968953;28;20051;-69
2022/01/08 03:42:18;;;;;;;7.60;2.10;;;2.00;99.90;;;;;;4970116;28;20045;-69
2022/01/08 03:44:44;;;;;;;8.90;1.92;;;1.90;99.90;;;;;;4969880;28;20042;-69
2022/01/08 03:49:55;;;;;;;5.03;2.05;;;1.80;99.90;;;;;;4969854;28;20054;-69
2022/01/08 03:52:23;;;;;;;6.57;2.20;;;1.80;99.90;;;;;;4969921;28;20051;-69
2022/01/08 03:54:48;;;;;;;7.45;2.20;;;1.80;99.90;;;;;;4967668;28;20043;-69
2022/01/08 03:57:14;;;;;;;10.32;2.78;;;1.70;99.90;;;;;;4970196;28;20042;-69
2022/01/08 03:59:40;;;;;;;6.78;2.60;;;1.70;99.90;;;;;;4969982;28;20434;-69
2022/01/08 04:02:06;;;;;;;6.32;2.63;;;1.60;99.90;;;;;;4969818;28;20498;-69
2022/01/08 04:04:32;;;;;;;5.47;2.50;;;1.60;99.90;;;;;;4969656;28;20092;-69
2022/01/08 04:06:58;;;;;;;8.88;2.78;;;1.60;99.90;;;;;;4969720;28;20097;-69
2022/01/08 04:09:23;;;;;;;6.25;3.00;;;1.50;99.90;;;;;;4969947;28;20054;-69
2022/01/08 04:11:51;;;;;;;8.70;3.13;;;1.50;99.90;;;;;;4969622;28;20051;-69
2022/01/08 04:14:18;;;;;;;7.93;2.90;;;1.40;99.90;;;;;;4969653;28;20066;-69
2022/01/08 04:16:47;;;;;;;7.72;2.65;;;1.40;99.90;;;;;;4953701;28;20096;-69
2022/01/08 04:19:13;;;;;;;8.18;2.80;;;1.40;99.90;;;;;;4969653;28;20047;-69
2022/01/08 04:24:09;;;;;;;7.75;2.65;;;1.30;99.90;;;;;;4969320;28;20119;-70
2022/01/08 04:26:35;;;;;;;6.97;3.22;;;1.30;99.90;;;;;;4967454;28;20046;-69
2022/01/08 04:29:01;;;;;;;9.75;2.75;;;1.30;99.90;;;;;;4969595;28;20043;-69
2022/01/08 04:31:27;;;;;;;9.43;3.13;;;1.20;99.90;;;;;;4969792;28;20046;-70
2022/01/08 04:33:53;;;;;;;6.10;2.78;;;1.20;99.90;;;;;;4969211;28;20039;-70
2022/01/08 04:36:20;;;;;;;9.57;3.22;;;1.20;99.90;;;;;;4969387;28;20054;-69
2022/01/08 04:38:46;;;;;;;7.82;2.95;;;1.20;99.90;;;;;;5002121;28;20065;-70
2022/01/08 04:41:12;;;;;;;11.32;3.28;;;1.10;99.90;;;;;;4953245;28;20129;-70
2022/01/08 04:43:42;;;;;;;9.57;3.53;;;1.10;99.90;;;;;;4969534;28;20546;-70
2022/01/08 04:46:08;;;;;;;12.95;3.67;;;1.10;99.90;;;;;;4953331;28;20038;-70
2022/01/08 04:48:34;;;;;;;14.23;3.75;;;1.00;99.90;;;;;;4969199;28;20080;-70
2022/01/08 04:50:59;;;;;;;14.25;3.90;;;1.00;99.90;;;;;;4955701;28;20093;-70
2022/01/08 04:53:25;;;;;;;8.00;4.03;;;1.00;99.90;;;;;;5005293;28;20054;-70
2022/01/08 04:55:51;;;;;;;13.13;3.83;;;1.10;99.90;;;;;;4970543;28;20035;-70
2022/01/08 04:58:17;;;;;;;11.50;3.60;;;1.10;99.90;;;;;;4972776;28;20042;-70
2022/01/08 05:00:43;;;;;;;9.05;3.90;;;1.00;99.90;;;;;;4956226;28;20050;-70
2022/01/08 05:03:09;;;;;;;7.75;4.43;;;1.00;99.90;;;;;;4988858;28;20041;-70
2022/01/08 05:05:35;;;;;;;11.02;4.18;;;1.00;99.90;;;;;;4972338;28;20046;-70
2022/01/08 05:08:01;;;;;;;8.63;4.00;;;0.90;99.90;;;;;;4972311;28;20043;-70
2022/01/08 05:10:26;;;;;;;5.88;3.05;;;0.90;99.90;;;;;;4972137;28;20075;-70
2022/01/08 05:12:52;;;;;;;8.18;2.88;;;0.80;99.90;;;;;;4956094;28;20042;-70
2022/01/08 05:15:18;;;;;;;6.53;3.35;;;0.80;99.90;;;;;;4972460;28;20058;-70
2022/01/08 05:17:47;;;;;;;11.65;3.95;;;0.70;99.90;;;;;;4972430;28;20051;-70
2022/01/08 05:20:14;;;;;;;11.38;4.50;;;0.60;99.90;;;;;;4956135;28;20410;-70
2022/01/08 05:25:13;;;;;;;11.90;4.43;;;0.60;99.90;;;;;;4970069;28;20104;-70
2022/01/08 05:27:39;;;;;;;13.38;4.68;;;0.60;99.90;;;;;;4972037;28;20495;-70
2022/01/08 05:30:05;;;;;;;6.57;4.00;;;0.60;99.90;;;;;;4988123;28;20054;-70
2022/01/08 05:32:31;;;;;;;9.98;4.00;;;0.60;99.90;;;;;;4971528;28;20100;-70
2022/01/08 05:34:57;;;;;;;10.18;4.15;;;0.60;99.90;;;;;;4952552;28;20101;-70
2022/01/08 05:37:23;;;;;;;15.52;5.18;;;0.60;99.90;;;;;;4952624;29;20047;-70
2022/01/08 05:39:50;;;;;;;13.27;4.47;;;0.60;99.90;;;;;;4952409;28;20047;-70
2022/01/08 05:42:16;;;;;;;11.35;4.75;;;0.70;99.90;;;;;;4952567;28;20106;-70
2022/01/08 05:44:42;;;;;;;9.55;4.03;;;0.70;99.90;;;;;;4952735;28;20122;-70
2022/01/08 05:47:08;;;;;;;10.68;4.10;;;0.70;99.90;;;;;;4952723;29;20476;-70
2022/01/08 05:49:34;;;;;;;10.05;4.20;;;0.70;99.90;;;;;;4952456;28;20082;-70
2022/01/08 05:52:00;;;;;;;11.32;4.10;;;0.70;99.90;;;;;;4952744;29;20090;-70
2022/01/08 05:54:26;;;;;;;15.57;4.72;;;0.80;99.90;;;;;;4952728;28;20043;-70
2022/01/08 05:56:52;;;;;;;11.65;4.47;;;0.90;99.90;;;;;;4950496;28;20514;-70
2022/01/08 05:59:18;;;;;;;11.30;4.95;;;0.90;99.90;;;;;;4952301;29;20085;-70
2022/01/08 06:01:44;;;;;;;8.15;3.67;;;1.00;99.90;;;;;;4935501;29;20045;-69
2022/01/08 06:04:10;;;;;;;15.48;4.60;;;1.00;99.90;;;;;;4936364;28;20436;-70
2022/01/08 06:06:39;;;;;;;10.25;3.42;;;1.00;99.90;;;;;;4952456;29;20047;-70
2022/01/08 06:09:05;;;;;;;13.38;3.75;;;1.00;99.90;;;;;;4936478;28;20391;-69
2022/01/08 06:11:31;;;;;;;12.25;4.20;;;1.00;99.90;;;;;;4952350;28;20043;-70
2022/01/08 06:13:57;;;;;;;12.27;4.05;;;1.00;99.90;;;;;;4952414;29;20468;-70
2022/01/08 06:16:23;;;;;;;10.32;3.65;;;0.90;99.90;;;;;;4984198;28;20491;-70
2022/01/08 06:18:49;;;;;;;13.80;4.57;;;0.90;99.90;;;;;;4952197;29;20042;-70
2022/01/08 06:21:14;;;;;;;11.45;3.65;;;0.90;99.90;;;;;;4955327;28;20063;-70
2022/01/08 06:23:40;;;;;;;11.25;4.50;;;0.90;99.90;;;;;;5003754;28;20047;-70
2022/01/08 06:26:07;;;;;;;11.75;3.60;;;0.80;99.90;;;;;;5001626;28;20050;-70
2022/01/08 06:28:33;;;;;;;11.02;3.80;;;0.80;99.90;;;;;;4987341;28;20050;-69
2022/01/08 06:30:59;;;;;;;13.55;3.90;;;0.80;99.90;;;;;;5003390;28;20054;-70
2022/01/08 06:33:25;;;;;;;11.30;4.65;;;0.80;99.90;;;;;;5011381;28;20046;-70
2022/01/08 06:35:51;;;;;;;9.38;3.42;;;0.80;99.90;;;;;;4974082;28;20042;-70
2022/01/08 06:38:18;;;;;;;11.88;3.65;;;0.80;99.90;;;;;;5007100;28;20077;-70
2022/01/08 06:40:45;;;;;;;5.32;2.90;;;0.70;99.90;;;;;;4990345;28;20125;-70
2022/01/08 06:43:12;;;;;;;9.95;3.35;;;0.70;99.90;;;;;;4990509;28;20077;-70
2022/01/08 06:45:37;;;;;;;15.40;4.05;;;0.60;99.90;;;;;;4990471;28;20450;-70
2022/01/08 06:48:04;;;;;;;16.40;4.10;;;0.60;99.90;;;;;;4990586;28;20077;-70
2022/01/08 06:50:29;;;;;;;9.75;3.63;;;0.60;99.90;;;;;;4990497;28;20053;-70
2022/01/08 06:52:57;;;;;;;9.73;4.18;;;0.50;99.90;;;;;;4990185;28;20414;-69
2022/01/08 06:55:23;;;;;;;7.88;3.90;;;0.50;99.90;;;;;;4987924;28;20137;-69
2022/01/08 06:57:49;;;;;;;9.65;3.95;;;0.50;99.90;;;;;;4990219;28;20050;-69
2022/01/08 07:00:15;;;;;;;11.07;4.30;;;0.50;99.90;;;;;;4989904;28;20061;-69
2022/01/08 07:02:41;;;;;;;11.75;3.22;;;0.60;99.90;;;;;;4973987;28;20034;-69
2022/01/08 07:05:07;;;;;;;17.27;4.18;;;0.60;99.90;;;;;;4990008;28;20074;-69
2022/01/08 07:07:33;;;;;;;13.73;4.35;;;0.70;99.90;;;;;;4973753;28;20045;-69
2022/01/08 07:09:58;;;;;;;7.72;3.20;;;0.70;99.90;;;;;;4989996;28;20046;-70
2022/01/08 07:12:24;;;;;;;7.57;2.97;;;0.80;99.90;;;;;;4973785;28;20084;-69
2022/01/08 07:14:50;;;;;;;11.70;3.55;;;0.80;99.90;;;;;;5006163;28;20050;-69
2022/01/08 07:17:16;;;;;;;8.00;2.95;;;0.90;99.90;;;;;;4989866;28;20046;-70
2022/01/08 07:19:42;;;;;;;8.75;3.35;;;0.90;99.90;;;;;;5006324;28;20042;-70
2022/01/08 07:22:07;;;;;;;9.25;3.40;;;0.90;99.90;;;;;;4979151;28;20147;-69
2022/01/08 07:24:33;;;;;;;8.82;3.00;;;0.90;99.90;;;;;;4986895;28;20479;-69
2022/01/08 07:26:59;;;;;;;8.98;3.03;;;0.90;99.90;;;;;;4968727;28;20475;-69
2022/01/08 07:29:25;;;;;;;15.30;4.28;;;1.00;99.90;;;;;;4986775;28;20200;-69
2022/01/08 07:31:51;;;;;;;13.38;4.10;;;1.00;99.90;;;;;;4954119;28;20039;-69
2022/01/08 07:34:16;;;;;;;9.10;3.38;;;1.00;99.90;;;;;;4987923;28;20039;-70
2022/01/08 07:36:42;;;;;;;9.68;3.05;;;1.00;99.90;;;;;;4950893;29;20123;-69
2022/01/08 07:39:08;;;;;;;9.60;3.08;;;1.00;99.90;;;;;;4983124;28;20132;-70
2022/01/08 07:41:34;;;;;;;12.23;3.80;;;1.00;99.90;;;;;;4951054;29;20043;-70
2022/01/08 07:44:00;;;;;;;4.85;2.85;;;1.00;99.90;;;;;;4983344;28;20427;-70
2022/01/08 07:46:26;;;;;;;8.82;3.33;;;1.00;99.90;;;;;;4950815;29;20519;-69
2022/01/08 07:48:51;;;;;;;11.73;3.85;;;1.10;99.90;;;;;;4934908;29;20046;-69
2022/01/08 07:51:17;;;;;;;9.77;3.05;;;1.10;99.90;;;;;;4967049;28;20047;-69
2022/01/08 07:53:43;;;;;;;11.15;3.33;;;1.10;99.90;;;;;;4935104;29;20039;-69
2022/01/08 07:56:09;;;;;;;9.30;3.92;;;1.10;99.90;;;;;;4948613;29;20407;-69
2022/01/08 07:58:35;;;;;;;10.82;4.15;;;1.10;99.90;;;;;;4950907;29;20399;-69
2022/01/08 08:01:01;;;;;;;9.40;3.95;;;1.10;99.90;;;;;;4950474;28;20128;-69
2022/01/08 08:03:26;;;;;;;6.90;2.45;;;1.20;99.90;;;;;;4949830;28;20050;-70
2022/01/08 08:05:52;;;;;;;11.23;3.22;;;1.20;99.90;;;;;;4966091;28;20039;-69
2022/01/08 08:08:20;;;;;;;8.63;3.88;;;1.30;99.90;;;;;;4949837;29;20039;-69
2022/01/08 08:10:48;;;;;;;7.15;3.92;;;1.30;99.90;;;;;;4949717;28;20058;-69
2022/01/08 08:13:15;;;;;;;11.90;3.85;;;1.40;99.90;;;;;;4933534;29;20073;-70
2022/01/08 08:15:41;;;;;;;7.13;4.10;;;1.40;99.90;;;;;;4949925;28;20101;-70
2022/01/08 08:18:06;;;;;;;11.65;4.00;;;1.50;99.90;;;;;;4981712;28;20439;-70
2022/01/08 08:20:32;;;;;;;6.10;3.67;;;1.60;99.90;;;;;;4949626;28;20042;-70
2022/01/08 08:22:58;;;;;;;6.13;3.72;;;1.70;99.90;;;;;;4966595;28;20495;-70
2022/01/08 08:25:24;;;;;;;5.60;2.13;;;1.70;99.90;;;;;;4984354;28;20103;-70
2022/01/08 08:27:50;;;;;;;6.43;3.38;;;1.80;99.90;;;;;;4971989;28;20518;-70
2022/01/08 08:30:16;;;;;;;6.00;2.92;;;1.90;99.90;;;;;;4987442;28;20050;-70
2022/01/08 08:32:42;;;;;;;10.32;3.65;;;2.00;99.90;;;;;;4991235;28;20486;-70
2022/01/08 08:35:08;;;;;;;10.40;3.30;;;2.00;99.90;;;;;;4991470;28;20042;-69
2022/01/08 08:37:36;;;;;;;9.15;2.72;;;2.20;99.90;;;;;;4991613;28;20039;-70
2022/01/08 08:40:06;;;;;;;10.10;2.35;;;2.40;99.90;;;;;;4991346;28;20049;-70
2022/01/08 08:42:31;;;;;;;6.72;2.60;;;2.70;99.90;;;;;;4975091;28;20498;-70
2022/01/08 08:44:57;;;;;;;6.70;2.75;;;2.70;99.90;;;;;;4991340;28;20045;-70
2022/01/08 08:47:23;;;;;;;8.23;3.13;;;2.60;99.90;;;;;;4975013;28;20042;-70
2022/01/08 08:49:49;;;;;;;6.25;2.58;;;2.50;99.90;;;;;;4991238;28;20042;-70
2022/01/08 08:52:15;;;;;;;8.27;2.58;;;2.40;99.90;;;;;;4991392;28;20081;-70
2022/01/08 08:54:42;;;;;;;10.70;2.92;;;2.40;99.90;;;;;;4990302;28;20443;-70
2022/01/08 08:57:08;;;;;;;7.22;4.03;;;2.30;99.90;;;;;;4990043;28;20121;-70
2022/01/08 08:59:37;;;;;;;11.43;3.00;;;2.30;99.90;;;;;;4974836;28;20055;-70
2022/01/08 09:02:03;;;;;;;8.27;3.22;;;2.30;99.90;;;;;;4991275;28;20125;-70
2022/01/08 09:04:29;;;;;;;14.43;2.88;;;2.20;99.90;;;;;;4974801;28;20047;-71
2022/01/08 09:06:57;;;;;;;7.28;3.13;;;2.30;99.90;;;;;;4974997;28;20041;-70
2022/01/08 09:09:26;;;;;;;12.07;3.80;;;2.30;99.90;;;;;;4991116;28;20453;-70
2022/01/08 09:11:52;;;;;;;11.55;3.22;;;2.40;99.90;;;;;;4990875;28;20038;-70
2022/01/08 09:14:18;;;;;;;7.25;2.88;;;2.40;99.90;;;;;;4991137;28;20038;-70
2022/01/08 09:16:50;;;;;;;10.43;1.98;;;2.50;99.90;;;;;;4990847;28;20535;-70
2022/01/08 09:19:17;;;;;;;8.75;2.53;;;2.50;99.90;;;;;;4990915;28;20505;-70
2022/01/08 09:21:44;;;;;;;5.32;2.30;;;2.60;99.90;;;;;;4983403;28;20129;-70
2022/01/08 09:24:10;;;;;;;9.55;1.85;;;2.50;99.90;;;;;;4971112;28;20047;-70
2022/01/08 09:26:36;;;;;;;10.48;4.03;;;2.50;99.90;;;;;;4968870;28;20071;-70
2022/01/08 09:29:03;;;;;;;9.45;2.88;;;2.50;99.90;;;;;;4971181;28;20038;-70
2022/01/08 09:31:29;;;;;;;6.18;2.38;;;2.50;99.90;;;;;;4971253;28;20047;-70
2022/01/08 09:33:54;;;;;;;6.75;2.55;;;2.50;99.90;;;;;;4971034;28;20042;-70
2022/01/08 09:36:20;;;;;;;10.00;2.65;;;2.50;99.90;;;;;;4987305;28;20051;-70
2022/01/08 09:38:46;;;;;;;4.07;2.10;;;2.50;99.90;;;;;;4970905;28;20074;-70
2022/01/08 09:41:12;;;;;;;8.63;3.25;;;2.50;99.90;;;;;;4970914;28;20104;-70
2022/01/08 09:43:38;;;;;;;7.90;3.35;;;2.60;99.90;;;;;;4971038;28;20047;-70
2022/01/08 09:46:05;;;;;;;6.00;1.95;;;2.60;99.90;;;;;;4971315;28;20035;-70
2022/01/08 09:48:31;;;;;;;5.22;2.25;;;2.90;99.90;;;;;;4971162;28;20057;-70
2022/01/08 09:50:56;;;;;;;11.95;3.30;;;3.20;99.90;;;;;;4954834;28;20596;-70
2022/01/08 09:53:22;;;;;;;6.05;3.65;;;3.40;99.90;;;;;;5003506;28;20054;-70
2022/01/08 09:55:48;;;;;;;6.45;3.40;;;3.50;99.90;;;;;;4968639;28;20491;-70
2022/01/08 09:58:14;;;;;;;12.27;3.75;;;3.60;99.90;;;;;;4970806;28;20043;-69
2022/01/08 10:00:40;;;;;;;6.65;2.60;;;3.60;99.90;;;;;;5003387;28;20394;-69
2022/01/08 10:03:24;;;;;;;7.63;2.30;;;3.60;99.90;;;;;;4986906;28;20133;-69
2022/01/08 10:05:54;;;;;;;5.72;2.65;;;3.90;99.90;;;;;;5003359;28;20042;-69
2022/01/08 10:08:25;;;;;;;8.45;2.78;;;4.10;99.90;;;;;;5003037;28;20495;-69
2022/01/08 10:10:55;;;;;;;4.80;2.00;;;4.10;99.90;;;;;;4970584;28;20042;-69
2022/01/08 10:13:23;;;;;;;11.63;4.30;;;4.10;99.90;;;;;;5003007;28;20487;-69
2022/01/08 10:18:37;;;;;;;10.35;3.92;;;4.00;99.90;;;;;;4970480;28;20134;-69
2022/01/08 10:21:26;;;;;;;5.40;3.45;;;4.00;99.90;;;;;;5006683;28;20050;-67
2022/01/08 10:23:53;;;;;;;7.03;3.83;;;3.90;99.90;;;;;;4993005;28;20502;-68
2022/01/08 10:26:21;;;;;;;11.55;3.92;;;3.80;99.90;;;;;;4990676;28;20076;-68
2022/01/08 10:28:53;;;;;;;9.00;4.22;;;3.70;99.90;;;;;;4976779;28;20069;-69
2022/01/08 10:31:26;;;;;;;7.93;4.75;;;3.60;99.90;;;;;;4993057;28;20119;-68
2022/01/08 10:34:12;;;;;;;9.73;3.55;;;3.60;99.90;;;;;;4992893;28;20060;-69
2022/01/08 10:36:40;;;;;;;6.78;2.95;;;3.70;99.90;;;;;;4976755;28;20193;-67
2022/01/08 10:39:24;;;;;;;5.07;2.25;;;3.70;99.90;;;;;;4992671;28;20059;-67
2022/01/08 10:41:54;;;;;;;6.03;3.17;;;3.70;99.90;;;;;;4992733;28;20525;-68
2022/01/08 10:44:21;;;;;;;8.38;3.35;;;3.80;99.90;;;;;;4992957;28;20148;-67
2022/01/08 10:46:59;;;;;;;15.85;5.28;;;3.90;99.90;;;;;;4992959;28;20079;-68
2022/01/08 10:49:36;;;;;;;6.28;3.88;;;4.00;99.90;;;;;;4992370;28;20038;-68
2022/01/08 10:52:05;;;;;;;12.82;5.60;;;4.00;99.90;;;;;;4992900;28;20041;-67
2022/01/08 10:54:36;;;;;;;10.23;5.25;;;4.10;99.90;;;;;;4976265;28;20604;-68
2022/01/08 10:57:06;;;;;;;4.40;2.67;;;4.10;99.90;;;;;;4973967;28;20067;-68
2022/01/08 10:59:32;;;;;;;4.75;2.78;;;4.00;99.90;;;;;;4992388;28;20130;-68
2022/01/08 11:02:08;;;;;;;8.52;5.20;;;4.00;99.90;;;;;;4992424;28;20100;-69
2022/01/08 11:04:50;;;;;;;14.43;6.05;;;4.00;99.90;;;;;;4976210;28;20135;-67
2022/01/08 11:07:22;;;;;;;10.45;5.13;;;4.00;99.90;;;;;;4992692;28;20042;-68
2022/01/08 11:09:50;;;;;;;7.10;3.38;;;4.10;99.90;;;;;;4991639;28;20050;-68
2022/01/08 11:12:34;;;;;;;11.65;4.53;;;4.10;99.90;;;;;;4992638;28;20046;-68
2022/01/08 11:17:52;;;;;;;5.63;3.42;;;4.30;99.90;;;;;;4992474;28;20175;-68
2022/01/08 11:20:25;;;;;;;10.55;5.57;;;4.40;99.90;;;;;;4992235;28;20516;-69
2022/01/08 11:22:53;;;;;;;7.30;3.30;;;4.40;99.90;;;;;;4992101;28;20164;-68
2022/01/08 11:25:28;;;;;;;9.82;4.97;;;4.50;99.90;;;;;;4989622;28;20081;-68
2022/01/08 11:28:10;;;;;;;6.97;3.55;;;4.60;99.90;;;;;;4975918;28;20125;-68
2022/01/08 11:30:57;;;;;;;15.00;4.85;;;4.50;99.90;;;;;;4992363;28;20041;-68
2022/01/08 11:33:33;;;;;;;10.60;6.03;;;4.50;99.90;;;;;;4991766;28;20072;-68
2022/01/08 11:35:59;;;;;;;7.28;3.78;;;4.40;99.90;;;;;;4992123;28;20046;-67
2022/01/08 11:38:27;;;;;;;8.38;5.05;;;4.40;99.90;;;;;;4992045;28;20077;-67
2022/01/08 11:40:55;;;;;;;9.15;5.10;;;4.40;99.90;;;;;;4975700;28;20491;-67
2022/01/08 11:43:25;;;;;;;8.13;4.40;;;4.30;99.90;;;;;;4991975;28;20033;-67
2022/01/08 11:46:04;;;;;;;10.67;5.20;;;4.20;99.90;;;;;;4992138;28;20394;-67
2022/01/08 11:48:46;;;;;;;8.52;4.18;;;4.20;99.90;;;;;;4991779;28;20781;-67
2022/01/08 11:51:23;;;;;;;6.45;2.95;;;4.20;99.90;;;;;;4975863;28;20371;-67
2022/01/08 11:53:52;;;;;;;17.95;5.28;;;4.20;99.90;;;;;;5024704;28;20060;-66
2022/01/08 11:56:29;;;;;;;7.38;5.38;;;4.20;99.90;;;;;;4989512;28;20050;-67
2022/01/08 11:59:15;;;;;;;10.88;6.72;;;4.10;99.90;;;;;;4990995;28;20081;-67
2022/01/08 12:02:08;;;;;;;12.90;5.40;;;4.10;99.90;;;;;;4975667;28;20050;-67
2022/01/08 12:04:35;;;;;;;8.25;3.75;;;4.10;99.90;;;;;;4995211;28;20064;-66
2022/01/08 12:07:35;;;;;;;13.00;4.40;;;4.00;99.90;;;;;;4991630;28;20541;-68
2022/01/08 12:10:18;;;;;;;6.30;4.85;;;4.10;99.90;;;;;;4991877;28;20046;-66
2022/01/08 12:12:57;;;;;;;10.80;4.65;;;4.10;99.90;;;;;;4991599;28;20049;-67
2022/01/08 12:15:41;;;;;;;11.93;6.20;;;4.10;99.90;;;;;;4986467;28;20490;-67
2022/01/08 12:18:10;;;;;;;17.02;9.38;;;4.10;99.90;;;;;;5061468;28;20035;-67
2022/01/08 12:20:49;;;;;;;6.03;3.90;;;4.10;99.90;;;;;;5056767;28;20038;-67
2022/01/08 12:23:38;;;;;;;11.15;6.18;;;4.20;99.90;;;;;;5053861;28;20110;-67
2022/01/08 12:26:27;;;;;;;7.57;4.22;;;4.20;99.90;;;;;;5067631;28;20041;-68
2022/01/08 12:28:59;;;;;;;12.65;7.03;;;4.20;99.90;;;;;;5053370;28;20119;-68
2022/01/08 12:31:44;;;;;;;17.70;9.18;;;4.20;99.90;;;;;;5070123;28;20579;-67
2022/01/08 12:34:42;;;;;;;17.90;10.18;;;4.20;99.90;;;;;;5059374;28;20067;-67
2022/01/08 12:37:13;;;;;;;14.60;7.60;;;4.10;99.90;;;;;;5070083;28;20573;-68
2022/01/08 12:39:41;;;;;;;17.55;10.85;;;4.20;99.90;;;;;;5053321;28;20055;-68
2022/01/08 12:42:22;;;;;;;14.52;10.43;;;4.10;99.90;;;;;;5070280;28;20052;-67
2022/01/08 12:45:07;;;;;;;;;;;4.10;99.90;;;;;;5070591;28;20051;-67
2022/01/08 12:47:40;;;;;;;15.93;8.98;;;4.20;99.90;;;;;;5070257;28;20276;-68
2022/01/08 12:50:19;;;;;;;16.50;11.13;;;4.10;99.90;;;;;;5069808;28;20051;-66
2022/01/08 12:53:03;;;;;;;12.95;7.47;;;4.10;99.90;;;;;;5069795;28;20045;-67
2022/01/08 12:56:02;;;;;;;10.38;6.28;;;4.10;99.90;;;;;;5050892;28;20059;-68
2022/01/08 12:58:31;;;;;;;16.48;9.68;;;4.10;99.90;;;;;;5069687;28;20051;-68
2022/01/08 13:00:57;;;;;;;14.07;8.25;;;4.20;99.90;;;;;;5052905;28;20040;-69
2022/01/08 13:03:31;;;;;;;11.43;8.35;;;4.10;99.90;;;;;;5053439;28;20040;-68
2022/01/08 13:05:59;;;;;;;12.82;7.55;;;4.20;99.90;;;;;;5069893;28;20396;-68
2022/01/08 13:08:33;;;;;;;8.50;5.97;;;4.20;99.90;;;;;;5053160;28;20577;-68
2022/01/08 13:11:03;;;;;;;15.48;6.63;;;4.20;99.90;;;;;;4997276;28;20054;-68
2022/01/08 13:13:48;;;;;;;11.52;7.40;;;4.20;99.90;;;;;;4971310;28;20164;-69
2022/01/08 13:16:27;;;;;;;12.00;6.10;;;4.20;99.90;;;;;;4955220;28;20043;-66
2022/01/08 13:19:19;;;;;;;11.73;7.47;;;4.20;99.90;;;;;;4971575;28;20038;-67
2022/01/08 13:21:48;;;;;;;9.32;6.15;;;4.20;99.90;;;;;;4978614;28;20051;-67
2022/01/08 13:24:21;;;;;;;15.52;8.18;;;4.20;99.90;;;;;;4990953;28;20120;-69
2022/01/08 13:26:57;;;;;;;11.80;6.13;;;4.10;99.90;;;;;;4988315;28;20088;-66
2022/01/08 13:29:35;;;;;;;8.80;5.07;;;4.10;99.90;;;;;;4990511;28;20038;-69
2022/01/08 13:32:06;;;;;;;9.88;4.28;;;4.10;99.90;;;;;;4974104;28;20042;-68